createdAt,value
2022-08-03T00:00:21.292Z,99895.75
2022-08-03T00:04:37.207Z,99912.25
2022-08-03T00:08:53.192Z,99896.69
2022-08-03T00:13:09.270Z,99900.06
2022-08-03T00:17:25.193Z,99895.56
2022-08-03T00:21:41.644Z,99896.16
2022-08-03T00:25:57.855Z,99897.97
2022-08-03T00:30:13.873Z,99899.00
2022-08-03T00:34:50.890Z,99897.62
2022-08-03T00:39:09.022Z,99907.09
2022-08-03T00:43:29.499Z,99911.28
2022-08-03T00:47:46.382Z,99902.97
2022-08-03T00:52:09.516Z,99905.62
2022-08-03T00:56:26.719Z,99905.12
2022-08-03T01:00:42.653Z,99909.06
2022-08-03T01:04:58.746Z,99910.09
2022-08-03T01:09:29.114Z,99920.72
2022-08-03T01:14:17.877Z,99910.53
2022-08-03T01:18:39.068Z,99925.06
2022-08-03T01:23:28.888Z,99925.75
2022-08-03T01:28:27.000Z,99931.69
2022-08-03T01:33:01.669Z,99929.72
2022-08-03T01:37:22.579Z,99930.44
2022-08-03T01:42:07.631Z,99941.34
2022-08-03T01:46:25.383Z,99937.25
2022-08-03T01:50:42.661Z,99937.88
2022-08-03T01:54:59.019Z,99934.63
2022-08-03T01:59:16.691Z,99931.28
2022-08-03T02:03:36.736Z,99926.47
2022-08-03T02:07:53.101Z,99929.81
2022-08-03T02:12:14.155Z,99924.72
2022-08-03T02:16:31.332Z,99920.97
2022-08-03T02:20:47.350Z,99921.09
2022-08-03T02:25:03.476Z,99929.22
2022-08-03T02:29:39.947Z,99921.31
2022-08-03T02:34:06.783Z,99926.59
2022-08-03T02:38:28.296Z,99929.62
2022-08-03T02:42:45.548Z,99922.50
2022-08-03T02:47:07.649Z,99922.03
2022-08-03T02:51:24.018Z,99923.66
2022-08-03T02:55:43.114Z,99924.31
2022-08-03T03:00:02.143Z,99922.69
2022-08-03T03:04:18.944Z,99922.19
2022-08-03T03:08:37.139Z,99914.34
2022-08-03T03:12:58.159Z,99923.25
2022-08-03T03:17:15.472Z,99929.88
2022-08-03T03:21:31.945Z,99924.66
2022-08-03T03:25:48.665Z,99928.25
2022-08-03T03:30:05.375Z,99917.25
2022-08-03T03:34:21.589Z,99923.38
2022-08-03T03:38:39.090Z,99925.25
2022-08-03T03:42:55.068Z,99928.53
2022-08-03T03:47:11.146Z,99927.91
2022-08-03T03:51:29.303Z,99929.28
2022-08-03T03:55:59.418Z,99928.41
2022-08-03T04:00:19.689Z,99932.16
2022-08-03T04:04:55.303Z,99930.63
2022-08-03T04:09:29.848Z,99936.38
2022-08-03T04:13:54.996Z,99933.09
2022-08-03T04:18:13.880Z,99941.88
2022-08-03T04:22:32.696Z,99951.75
2022-08-03T04:26:52.604Z,99955.37
2022-08-03T04:31:09.065Z,99961.75
2022-08-03T04:35:59.823Z,99964.53
2022-08-03T04:40:13.651Z,99965.25
2022-08-03T04:44:31.396Z,99979.34
2022-08-03T04:48:47.658Z,99977.72
2022-08-03T04:53:05.328Z,99982.81
2022-08-03T04:57:22.073Z,99994.50
2022-08-03T05:01:42.237Z,99995.56
2022-08-03T05:06:09.428Z,100008.97
2022-08-03T05:10:27.843Z,100001.56
2022-08-03T05:14:43.977Z,100006.41
2022-08-03T05:19:00.096Z,100016.75
2022-08-03T05:23:16.270Z,100012.16
2022-08-03T05:27:32.260Z,100014.50
2022-08-03T05:31:48.360Z,100010.13
2022-08-03T05:36:04.770Z,100000.50
2022-08-03T05:40:20.803Z,100004.81
2022-08-03T05:44:38.882Z,100007.94
2022-08-03T05:48:54.860Z,100004.19
2022-08-03T05:53:10.995Z,100006.13
2022-08-03T05:57:27.175Z,100008.84
2022-08-03T06:01:43.136Z,100012.53
2022-08-03T06:06:00.377Z,100011.94
2022-08-03T06:10:36.725Z,100010.59
2022-08-03T06:14:52.822Z,100007.44
2022-08-03T06:19:08.831Z,100009.38
2022-08-03T06:23:53.374Z,100006.37
2022-08-03T06:28:00.802Z,100009.75
2022-08-03T06:32:17.246Z,100016.13
2022-08-03T06:36:33.753Z,100012.22
2022-08-03T06:40:50.964Z,100017.84
2022-08-03T06:45:09.164Z,100015.50
2022-08-03T06:49:25.414Z,100025.41
2022-08-03T06:53:41.505Z,100021.62
2022-08-03T06:57:59.968Z,100023.91
2022-08-03T07:02:19.888Z,100023.56
2022-08-03T07:06:37.531Z,100028.28
2022-08-03T07:10:53.513Z,100021.13
2022-08-03T07:15:20.099Z,100021.34
2022-08-03T07:19:37.214Z,100027.91
2022-08-03T07:23:53.254Z,100025.31
2022-08-03T07:28:09.213Z,100027.47
2022-08-03T07:32:26.174Z,100027.59
2022-08-03T07:36:42.167Z,100018.84
2022-08-03T07:40:58.157Z,100016.72
2022-08-03T07:45:16.612Z,100020.09
2022-08-03T07:49:32.964Z,100008.41
2022-08-03T07:53:48.956Z,100006.06
2022-08-03T07:58:12.690Z,100009.03
2022-08-03T08:02:28.705Z,99998.47
2022-08-03T08:06:44.880Z,100008.03
2022-08-03T08:11:01.021Z,100003.13
2022-08-03T08:15:17.176Z,99998.38
2022-08-03T08:19:33.173Z,100002.56
2022-08-03T08:23:57.894Z,100004.94
2022-08-03T08:28:30.387Z,100003.50
2022-08-03T08:32:50.205Z,100000.28
2022-08-03T08:37:06.212Z,100003.25
2022-08-03T08:41:22.244Z,100011.19
2022-08-03T08:45:38.645Z,99994.53
2022-08-03T08:50:09.183Z,100001.69
2022-08-03T08:54:27.076Z,100005.75
2022-08-03T08:58:54.788Z,99991.78
2022-08-03T09:03:11.688Z,99993.87
2022-08-03T09:07:38.515Z,99989.28
2022-08-03T09:12:01.069Z,99987.44
2022-08-03T09:16:24.900Z,99982.03
2022-08-03T09:20:41.007Z,99982.97
2022-08-03T09:25:22.771Z,99981.34
2022-08-03T09:29:34.976Z,99981.62
2022-08-03T09:33:51.072Z,99983.63
2022-08-03T09:38:28.648Z,99975.25
2022-08-03T09:42:57.400Z,99974.53
2022-08-03T09:47:15.923Z,99964.53
2022-08-03T09:51:32.788Z,99966.09
2022-08-03T09:56:35.119Z,99963.72
2022-08-03T10:01:07.711Z,99958.88
2022-08-03T10:05:44.662Z,99955.69
2022-08-03T10:10:31.715Z,99946.41
2022-08-03T10:14:39.762Z,99937.19
2022-08-03T10:18:57.770Z,99934.78
2022-08-03T10:23:15.088Z,99938.38
2022-08-03T10:27:40.486Z,99927.34
2022-08-03T10:31:59.064Z,99932.97
2022-08-03T10:36:16.571Z,99931.44
2022-08-03T10:40:48.176Z,99929.72
2022-08-03T10:45:13.167Z,99923.47
2022-08-03T10:49:33.820Z,99921.31
2022-08-03T10:53:54.869Z,99909.84
2022-08-03T10:58:11.675Z,99907.69
2022-08-03T11:03:06.860Z,99903.13
2022-08-03T11:07:24.194Z,99903.75
2022-08-03T11:11:45.217Z,99895.84
2022-08-03T11:16:06.661Z,99889.38
2022-08-03T11:20:47.319Z,99888.09
2022-08-03T11:25:04.629Z,99880.88
2022-08-03T11:29:32.649Z,99879.03
2022-08-03T11:34:11.361Z,99872.56
2022-08-03T11:38:27.349Z,99874.78
2022-08-03T11:42:50.477Z,99874.25
2022-08-03T11:47:06.527Z,99868.94
2022-08-03T11:51:28.332Z,99864.34
2022-08-03T11:55:49.098Z,99862.88
2022-08-03T12:00:21.245Z,99859.88
2022-08-03T12:05:01.438Z,99837.28
2022-08-03T12:09:17.563Z,99844.59
2022-08-03T12:14:36.671Z,99846.28
2022-08-03T12:18:24.544Z,99839.56
2022-08-03T12:22:41.544Z,99836.53
2022-08-03T12:27:00.110Z,99839.63
2022-08-03T12:31:17.549Z,99830.47
2022-08-03T12:35:33.556Z,99828.88
2022-08-03T12:40:02.566Z,99821.81
2022-08-03T12:44:31.591Z,99820.66
2022-08-03T12:49:01.748Z,99810.00
2022-08-03T12:53:30.819Z,99805.06
2022-08-03T12:57:47.130Z,99817.44
2022-08-03T13:02:09.456Z,99807.12
2022-08-03T13:06:26.569Z,99803.72
2022-08-03T13:10:44.081Z,99799.34
2022-08-03T13:15:01.160Z,99795.97
2022-08-03T13:19:17.271Z,99797.56
2022-08-03T13:23:33.379Z,99799.78
2022-08-03T13:28:04.478Z,99796.13
2022-08-03T13:32:23.282Z,99790.47
2022-08-03T13:37:07.430Z,99796.56
2022-08-03T13:41:15.541Z,99787.81
2022-08-03T13:45:32.193Z,99788.50
2022-08-03T13:49:54.327Z,99785.13
2022-08-03T13:54:19.834Z,99778.78
2022-08-03T13:58:35.807Z,99777.16
2022-08-03T14:02:52.236Z,99768.66
2022-08-03T14:07:08.289Z,99766.50
2022-08-03T14:11:24.253Z,99765.88
2022-08-03T14:16:00.295Z,99756.06
2022-08-03T14:20:38.020Z,99762.06
2022-08-03T14:24:54.067Z,99745.25
2022-08-03T14:29:10.082Z,99746.00
2022-08-03T14:33:26.350Z,99743.41
2022-08-03T14:37:42.405Z,99736.97
2022-08-03T14:41:58.346Z,99737.88
2022-08-03T14:46:14.518Z,99735.38
2022-08-03T14:50:41.628Z,99724.16
2022-08-03T14:55:01.306Z,99727.84
2022-08-03T14:59:17.398Z,99729.34
2022-08-03T15:03:33.434Z,99724.69
2022-08-03T15:07:49.518Z,99726.78
2022-08-03T15:12:06.764Z,99723.78
2022-08-03T15:16:26.594Z,99723.34
2022-08-03T15:20:47.242Z,99729.09
2022-08-03T15:26:31.582Z,99723.59
2022-08-03T15:30:08.893Z,99726.03
2022-08-03T15:34:16.723Z,99728.53
2022-08-03T15:38:32.784Z,99728.25
2022-08-03T15:42:48.792Z,99713.69
2022-08-03T15:47:04.828Z,99720.34
2022-08-03T15:51:20.918Z,99709.16
2022-08-03T15:55:36.890Z,99715.09
2022-08-03T15:59:53.105Z,99710.06
2022-08-03T16:04:09.555Z,99717.53
2022-08-03T16:08:25.850Z,99711.75
2022-08-03T16:12:42.344Z,99708.97
2022-08-03T16:17:00.641Z,99708.72
2022-08-03T16:21:19.392Z,99705.91
2022-08-03T16:25:36.238Z,99696.37
2022-08-03T16:29:52.448Z,99697.16
2022-08-03T16:34:08.404Z,99695.84
2022-08-03T16:38:24.675Z,99694.00
2022-08-03T16:42:40.829Z,99698.97
2022-08-03T16:46:57.060Z,99692.59
2022-08-03T16:51:14.899Z,99700.22
2022-08-03T16:55:49.151Z,99695.78
2022-08-03T17:00:08.188Z,99703.75
2022-08-03T17:04:24.614Z,99702.72
2022-08-03T17:08:40.639Z,99707.03
2022-08-03T17:12:56.689Z,99708.53
2022-08-03T17:17:21.163Z,99708.28
2022-08-03T17:21:40.079Z,99713.19
2022-08-03T17:26:04.230Z,99714.44
2022-08-03T17:30:21.400Z,99719.22
2022-08-03T17:34:44.467Z,99731.03
2022-08-03T17:39:00.792Z,99731.38
2022-08-03T17:44:13.018Z,99734.84
2022-08-03T17:47:57.542Z,99736.28
2022-08-03T17:52:28.663Z,99741.06
2022-08-03T17:56:59.937Z,99741.59
2022-08-03T18:02:35.688Z,99742.34
2022-08-03T18:06:56.291Z,99738.97
2022-08-03T18:11:16.479Z,99747.88
2022-08-03T18:15:42.701Z,99752.13
2022-08-03T18:20:03.428Z,99754.97
2022-08-03T18:24:25.823Z,99751.94
2022-08-03T18:28:44.236Z,99757.78
2022-08-03T18:34:16.561Z,99768.78
2022-08-03T18:37:52.073Z,99778.44
2022-08-03T18:42:08.551Z,99783.81
2022-08-03T18:46:50.741Z,99794.72
2022-08-03T18:51:28.578Z,99795.09
2022-08-03T18:56:11.154Z,99799.06
2022-08-03T19:00:34.185Z,99797.84
2022-08-03T19:05:09.882Z,99806.22
2022-08-03T19:09:36.199Z,99806.97
2022-08-03T19:13:59.358Z,99824.16
2022-08-03T19:18:20.774Z,99816.50
2022-08-03T19:22:39.904Z,99826.78
2022-08-03T19:27:02.649Z,99820.97
2022-08-03T19:31:18.738Z,99824.31
2022-08-03T19:35:54.600Z,99826.94
2022-08-03T19:40:12.882Z,99829.94
2022-08-03T19:44:33.255Z,99838.00
2022-08-03T19:49:15.863Z,99834.09
2022-08-03T19:53:37.233Z,99834.88
2022-08-03T19:58:02.499Z,99837.28
2022-08-03T20:02:25.718Z,99836.97
2022-08-03T20:06:44.109Z,99835.81
2022-08-03T20:11:04.285Z,99846.41
2022-08-03T20:15:31.156Z,99845.50
2022-08-03T20:19:52.761Z,99839.91
2022-08-03T20:24:23.302Z,99836.44
2022-08-03T20:28:50.644Z,99836.53
2022-08-03T20:33:07.713Z,99848.28
2022-08-03T20:37:23.755Z,99837.88
2022-08-03T20:41:41.149Z,99849.50
2022-08-03T20:45:59.098Z,99851.88
2022-08-03T20:50:33.346Z,99843.88
2022-08-03T20:54:51.479Z,99842.13
2022-08-03T20:59:15.204Z,99845.50
2022-08-03T21:03:40.755Z,99844.25
2022-08-03T21:08:07.471Z,99841.09
2022-08-03T21:12:35.054Z,99847.91
2022-08-03T21:16:54.425Z,99846.75
2022-08-03T21:21:13.982Z,99848.97
2022-08-03T21:25:34.397Z,99851.97
2022-08-03T21:29:53.267Z,99855.56
2022-08-03T21:34:10.102Z,99857.84
2022-08-03T21:38:29.828Z,99865.69
2022-08-03T21:42:46.383Z,99866.16
2022-08-03T21:47:02.453Z,99879.56
2022-08-03T21:51:20.072Z,99870.84
2022-08-03T21:55:38.120Z,99869.66
2022-08-03T21:59:56.724Z,99873.09
2022-08-03T22:04:45.836Z,99875.84
2022-08-03T22:08:51.795Z,99880.78
2022-08-03T22:13:07.887Z,99879.72
2022-08-03T22:17:55.937Z,99882.56
2022-08-03T22:22:06.186Z,99875.12
2022-08-03T22:26:32.174Z,99882.69
2022-08-03T22:30:51.908Z,99895.13
2022-08-03T22:35:11.246Z,99881.75
2022-08-03T22:39:31.319Z,99890.28
2022-08-03T22:43:47.759Z,99887.94
2022-08-03T22:48:05.870Z,99891.00
2022-08-03T22:52:23.666Z,99897.19
2022-08-03T22:56:40.314Z,99897.81
2022-08-03T23:01:03.216Z,99897.28
2022-08-03T23:06:00.548Z,99897.91
2022-08-03T23:10:14.018Z,99897.69
2022-08-03T23:14:33.222Z,99893.47
2022-08-03T23:18:50.995Z,99898.22
2022-08-03T23:23:07.031Z,99904.03
2022-08-03T23:27:24.757Z,99909.00
2022-08-03T23:31:43.050Z,99904.03
2022-08-03T23:36:28.420Z,99899.94
2022-08-03T23:40:41.728Z,99901.69
2022-08-03T23:45:05.406Z,99911.59
2022-08-03T23:49:22.171Z,99923.31
2022-08-03T23:54:00.144Z,99913.53
2022-08-03T23:58:48.497Z,99913.44
